createdAt,value
2023-02-13T00:01:53.060Z,100.00
2023-02-13T00:05:54.720Z,100.00
2023-02-13T00:09:56.247Z,100.00
2023-02-13T00:13:58.791Z,100.00
2023-02-13T00:18:00.349Z,100.00
2023-02-13T00:22:01.936Z,100.00
2023-02-13T00:26:10.438Z,100.00
2023-02-13T00:30:14.261Z,100.00
2023-02-13T00:34:15.859Z,100.00
2023-02-13T00:38:17.420Z,100.00
2023-02-13T00:42:24.147Z,100.00
2023-02-13T00:46:25.821Z,100.00
2023-02-13T00:50:28.267Z,100.00
2023-02-13T00:54:29.840Z,100.00
2023-02-13T00:58:31.809Z,100.00
2023-02-13T01:02:36.210Z,100.00
2023-02-13T01:06:37.838Z,100.00
2023-02-13T01:10:40.449Z,100.00
2023-02-13T01:14:45.887Z,100.00
2023-02-13T01:18:47.569Z,100.00
2023-02-13T01:22:49.211Z,100.00
2023-02-13T01:26:55.247Z,100.00
2023-02-13T01:30:58.382Z,100.00
2023-02-13T01:35:00.196Z,100.00
2023-02-13T01:39:01.879Z,100.00
2023-02-13T01:43:03.462Z,100.00
2023-02-13T01:47:05.036Z,100.00
2023-02-13T01:51:12.981Z,100.00
2023-02-13T01:55:15.751Z,100.00
2023-02-13T01:59:19.455Z,100.00
2023-02-13T02:03:27.920Z,100.00
2023-02-13T02:07:33.446Z,100.00
2023-02-13T02:11:57.454Z,100.00
2023-02-13T02:15:59.375Z,100.00
2023-02-13T02:20:26.288Z,100.00
2023-02-13T02:24:36.938Z,100.00
2023-02-13T02:29:22.611Z,100.00
2023-02-13T02:33:30.997Z,100.00
2023-02-13T02:38:01.003Z,100.00
2023-02-13T02:42:24.991Z,100.00
2023-02-13T02:46:35.484Z,100.00
2023-02-13T02:50:46.071Z,100.00
2023-02-13T02:55:29.247Z,100.00
2023-02-13T02:59:50.175Z,100.00
2023-02-13T03:04:13.829Z,100.00
2023-02-13T03:08:37.474Z,100.00
2023-02-13T03:13:03.880Z,100.00
2023-02-13T03:17:25.518Z,100.00
2023-02-13T03:22:03.963Z,100.00
2023-02-13T03:26:11.374Z,100.00
2023-02-13T03:30:50.698Z,100.00
2023-02-13T03:35:43.155Z,100.00
2023-02-13T03:39:56.589Z,100.00
2023-02-13T03:44:12.888Z,100.00
2023-02-13T03:48:38.526Z,100.00
2023-02-13T03:52:56.917Z,100.00
2023-02-13T03:57:17.323Z,100.00
2023-02-13T04:01:22.051Z,100.00
2023-02-13T04:05:28.394Z,100.00
2023-02-13T04:09:32.791Z,100.00
2023-02-13T04:13:36.731Z,100.00
2023-02-13T04:17:44.519Z,100.00
2023-02-13T04:21:49.896Z,100.00
2023-02-13T04:25:55.932Z,100.00
2023-02-13T04:29:57.595Z,100.00
2023-02-13T04:33:59.142Z,100.00
2023-02-13T04:38:01.147Z,100.00
2023-02-13T04:42:02.712Z,100.00
2023-02-13T04:46:04.714Z,100.00
2023-02-13T04:50:07.222Z,100.00
2023-02-13T04:54:08.813Z,100.00
2023-02-13T04:58:10.391Z,100.00
2023-02-13T05:02:11.982Z,100.00
2023-02-13T05:06:14.301Z,100.00
2023-02-13T05:10:15.945Z,100.00
2023-02-13T05:14:17.566Z,100.00
2023-02-13T05:18:20.203Z,100.00
2023-02-13T05:22:40.488Z,100.00
2023-02-13T05:26:42.059Z,100.00
2023-02-13T05:30:43.727Z,100.00
2023-02-13T05:34:45.313Z,100.00
2023-02-13T05:38:46.879Z,100.00
2023-02-13T05:42:48.420Z,100.00
2023-02-13T05:46:50.033Z,100.00
2023-02-13T05:50:51.622Z,100.00
2023-02-13T05:54:53.187Z,100.00
2023-02-13T05:58:55.884Z,100.00
2023-02-13T06:02:57.708Z,100.00
2023-02-13T06:06:59.798Z,100.00
2023-02-13T06:11:01.885Z,100.00
2023-02-13T06:15:03.933Z,100.00
2023-02-13T06:19:05.701Z,100.00
2023-02-13T06:23:07.732Z,100.00
2023-02-13T06:27:09.276Z,100.00
2023-02-13T06:31:11.183Z,100.00
2023-02-13T06:35:13.400Z,100.00
2023-02-13T06:39:15.285Z,100.00
2023-02-13T06:43:17.912Z,100.00
2023-02-13T06:47:19.588Z,100.00
2023-02-13T06:51:21.169Z,100.00
2023-02-13T06:55:22.993Z,100.00
2023-02-13T06:59:24.797Z,100.00
2023-02-13T07:03:26.434Z,100.00
2023-02-13T07:07:35.485Z,100.00
2023-02-13T07:11:39.091Z,100.00
2023-02-13T07:15:41.149Z,100.00
2023-02-13T07:19:43.073Z,100.00
2023-02-13T07:23:44.670Z,100.00
2023-02-13T07:27:46.316Z,100.00
2023-02-13T07:31:48.213Z,100.00
2023-02-13T07:35:51.725Z,100.00
2023-02-13T07:39:53.302Z,100.00
2023-02-13T07:43:55.225Z,100.00
2023-02-13T07:47:57.406Z,100.00
2023-02-13T07:51:59.709Z,100.00
2023-02-13T07:56:08.587Z,100.00
2023-02-13T08:00:11.705Z,100.00
2023-02-13T08:04:13.495Z,100.00
2023-02-13T08:08:16.889Z,100.00
2023-02-13T08:12:18.729Z,100.00
2023-02-13T08:16:20.388Z,100.00
2023-02-13T08:20:22.490Z,100.00
2023-02-13T08:24:24.684Z,100.00
2023-02-13T08:28:26.722Z,100.00
2023-02-13T08:32:29.260Z,100.00
2023-02-13T08:36:31.658Z,100.00
2023-02-13T08:40:33.389Z,100.00
2023-02-13T08:44:35.480Z,100.00
2023-02-13T08:48:40.681Z,100.00
2023-02-13T08:52:42.467Z,100.00
2023-02-13T08:56:44.699Z,100.00
2023-02-13T09:00:46.676Z,100.00
2023-02-13T09:04:49.041Z,100.00
2023-02-13T09:08:50.708Z,100.00
2023-02-13T09:12:53.165Z,100.00
2023-02-13T09:16:54.869Z,100.00
2023-02-13T09:21:05.283Z,100.00
2023-02-13T09:25:07.828Z,100.00
2023-02-13T09:29:09.661Z,100.00
2023-02-13T09:33:12.357Z,100.00
2023-02-13T09:37:14.065Z,100.00
2023-02-13T09:41:20.992Z,100.00
2023-02-13T09:45:23.688Z,100.00
2023-02-13T09:49:30.475Z,97.48
2023-02-13T09:53:34.494Z,97.65
2023-02-13T09:57:45.676Z,96.63
2023-02-13T10:01:50.948Z,93.85
2023-02-13T10:05:58.219Z,92.78
2023-02-13T10:10:30.635Z,93.48
2023-02-13T10:14:54.336Z,92.39
2023-02-13T10:19:03.828Z,90.76
2023-02-13T10:23:30.538Z,89.94
2023-02-13T10:27:40.450Z,85.85
2023-02-13T10:31:48.401Z,87.77
2023-02-13T10:36:16.676Z,86.99
2023-02-13T10:40:19.446Z,82.63
2023-02-13T10:44:39.481Z,83.18
2023-02-13T10:48:59.692Z,81.77
2023-02-13T10:53:30.680Z,82.78
2023-02-13T10:58:13.768Z,81.76
2023-02-13T11:02:27.822Z,80.24
2023-02-13T11:06:30.349Z,78.75
2023-02-13T11:10:31.998Z,78.23
2023-02-13T11:14:35.644Z,76.71
2023-02-13T11:18:41.628Z,75.78
2023-02-13T11:22:43.647Z,74.97
2023-02-13T11:26:50.202Z,72.67
2023-02-13T11:30:52.049Z,71.58
2023-02-13T11:34:56.678Z,70.17
2023-02-13T11:39:07.613Z,69.97
2023-02-13T11:43:18.798Z,67.95
2023-02-13T11:47:37.641Z,66.47
2023-02-13T11:51:51.828Z,68.18
2023-02-13T11:56:17.836Z,65.83
2023-02-13T12:00:34.113Z,67.65
2023-02-13T12:04:35.793Z,67.74
2023-02-13T12:08:39.222Z,66.40
2023-02-13T12:12:47.602Z,62.72
2023-02-13T12:16:54.504Z,59.81
2023-02-13T12:21:17.375Z,59.78
2023-02-13T12:25:36.837Z,55.27
2023-02-13T12:30:07.968Z,53.46
2023-02-13T12:34:32.633Z,50.82
2023-02-13T12:38:57.503Z,53.03
2023-02-13T12:43:21.138Z,50.75
2023-02-13T12:47:44.296Z,50.77
2023-02-13T12:51:55.194Z,48.90
2023-02-13T12:56:16.012Z,46.94
2023-02-13T13:00:37.540Z,44.42
2023-02-13T13:05:05.341Z,43.69
2023-02-13T13:09:31.671Z,43.06
2023-02-13T13:14:00.814Z,43.08
2023-02-13T13:18:29.968Z,42.57
2023-02-13T13:22:46.963Z,44.34
2023-02-13T13:26:54.187Z,45.41
2023-02-13T13:30:58.732Z,47.92
2023-02-13T13:35:01.315Z,49.58
2023-02-13T13:39:22.588Z,51.57
2023-02-13T13:43:46.047Z,52.17
2023-02-13T13:48:26.522Z,54.05
2023-02-13T13:52:37.620Z,54.19
2023-02-13T13:56:53.747Z,54.48
2023-02-13T14:01:18.693Z,55.48
2023-02-13T14:05:32.497Z,55.28
2023-02-13T14:09:43.153Z,55.47
2023-02-13T14:13:46.006Z,55.79
2023-02-13T14:17:52.673Z,56.44
2023-02-13T14:21:55.437Z,56.89
2023-02-13T14:26:15.655Z,57.46
2023-02-13T14:30:34.203Z,57.26
2023-02-13T14:34:39.613Z,57.78
2023-02-13T14:38:41.961Z,57.70
2023-02-13T14:42:47.427Z,57.63
2023-02-13T14:46:50.264Z,57.84
2023-02-13T14:50:57.111Z,58.24
2023-02-13T14:55:04.592Z,58.32
2023-02-13T14:59:18.013Z,58.13
2023-02-13T15:03:31.875Z,58.53
2023-02-13T15:07:44.659Z,58.28
2023-02-13T15:11:47.499Z,58.12
2023-02-13T15:15:58.932Z,58.30
2023-02-13T15:20:13.249Z,58.63
2023-02-13T15:24:15.650Z,59.23
2023-02-13T15:28:20.992Z,59.33
2023-02-13T15:32:28.984Z,59.96
2023-02-13T15:36:40.228Z,60.58
2023-02-13T15:40:42.644Z,60.86
2023-02-13T15:44:48.861Z,61.35
2023-02-13T15:48:51.571Z,61.86
2023-02-13T15:52:53.583Z,62.11
2023-02-13T15:56:59.201Z,62.81
2023-02-13T16:01:06.975Z,63.78
2023-02-13T16:05:12.727Z,64.69
2023-02-13T16:09:25.314Z,65.34
2023-02-13T16:14:19.845Z,66.11
2023-02-13T16:18:21.578Z,67.09
2023-02-13T16:22:31.331Z,68.37
2023-02-13T16:26:36.143Z,69.13
2023-02-13T16:30:46.991Z,70.04
2023-02-13T16:34:50.730Z,71.04
2023-02-13T16:38:52.350Z,71.85
2023-02-13T16:42:54.036Z,72.92
2023-02-13T16:46:57.492Z,73.89
2023-02-13T16:50:59.531Z,74.68
2023-02-13T16:55:06.596Z,76.00
2023-02-13T16:59:23.090Z,76.96
2023-02-13T17:03:24.746Z,77.27
2023-02-13T17:07:31.425Z,78.30
2023-02-13T17:11:33.041Z,79.12
2023-02-13T17:15:34.800Z,79.75
2023-02-13T17:19:36.590Z,80.35
2023-02-13T17:23:38.570Z,80.96
2023-02-13T17:27:40.278Z,81.67
2023-02-13T17:31:41.929Z,82.22
2023-02-13T17:35:43.904Z,83.32
2023-02-13T17:39:46.465Z,83.83
2023-02-13T17:43:48.078Z,84.61
2023-02-13T17:47:49.676Z,85.49
2023-02-13T17:51:51.315Z,86.09
2023-02-13T17:55:53.375Z,86.94
2023-02-13T17:59:56.503Z,87.51
2023-02-13T18:03:58.066Z,88.13
2023-02-13T18:08:02.767Z,88.67
2023-02-13T18:12:05.944Z,89.41
2023-02-13T18:16:09.391Z,89.86
2023-02-13T18:20:15.136Z,90.56
2023-02-13T18:24:16.768Z,91.22
2023-02-13T18:28:23.995Z,91.75
2023-02-13T18:32:26.551Z,92.25
2023-02-13T18:36:29.070Z,92.69
2023-02-13T18:40:30.757Z,93.56
2023-02-13T18:44:32.448Z,94.27
2023-02-13T18:48:34.041Z,95.56
2023-02-13T18:52:36.026Z,96.16
2023-02-13T18:56:37.640Z,97.10
2023-02-13T19:00:39.921Z,97.74
2023-02-13T19:04:41.544Z,99.47
2023-02-13T19:08:43.229Z,100.00
2023-02-13T19:12:44.864Z,100.00
2023-02-13T19:16:46.527Z,100.00
2023-02-13T19:20:48.340Z,99.94
2023-02-13T19:24:49.877Z,100.00
2023-02-13T19:28:52.077Z,100.00
2023-02-13T19:32:54.294Z,100.00
2023-02-13T19:36:57.552Z,100.00
2023-02-13T19:41:11.335Z,100.00
2023-02-13T19:45:12.903Z,100.00
2023-02-13T19:49:14.473Z,100.00
2023-02-13T19:53:16.752Z,100.00
2023-02-13T19:57:18.454Z,100.00
2023-02-13T20:01:22.646Z,100.00
2023-02-13T20:05:24.232Z,100.00
2023-02-13T20:09:25.771Z,100.00
2023-02-13T20:13:27.368Z,100.00
2023-02-13T20:17:28.993Z,100.00
2023-02-13T20:21:30.640Z,100.00
2023-02-13T20:25:33.246Z,100.00
2023-02-13T20:29:37.174Z,100.00
2023-02-13T20:33:40.411Z,100.00
2023-02-13T20:37:42.762Z,100.00
2023-02-13T20:41:50.193Z,100.00
2023-02-13T20:45:51.812Z,100.00
2023-02-13T20:49:53.477Z,100.00
2023-02-13T20:53:56.012Z,100.00
2023-02-13T20:57:57.564Z,100.00
2023-02-13T21:01:59.288Z,100.00
2023-02-13T21:06:00.850Z,100.00
2023-02-13T21:10:02.481Z,100.00
2023-02-13T21:14:04.509Z,100.00
2023-02-13T21:18:06.465Z,100.00
2023-02-13T21:22:12.057Z,100.00
2023-02-13T21:26:16.346Z,100.00
2023-02-13T21:30:17.916Z,100.00
2023-02-13T21:34:19.804Z,100.00
2023-02-13T21:38:23.418Z,100.00
2023-02-13T21:42:25.880Z,100.00
2023-02-13T21:46:30.846Z,100.00
2023-02-13T21:50:32.537Z,100.00
2023-02-13T21:54:34.311Z,100.00
2023-02-13T21:58:37.248Z,100.00
2023-02-13T22:02:39.662Z,100.00
2023-02-13T22:06:41.415Z,100.00
2023-02-13T22:10:43.093Z,100.00
2023-02-13T22:14:44.638Z,100.00
2023-02-13T22:18:46.253Z,100.00
2023-02-13T22:22:48.518Z,100.00
2023-02-13T22:26:50.054Z,100.00
2023-02-13T22:30:51.744Z,100.00
2023-02-13T22:34:53.985Z,100.00
2023-02-13T22:38:55.766Z,100.00
2023-02-13T22:42:57.390Z,100.00
2023-02-13T22:46:59.085Z,100.00
2023-02-13T22:51:09.777Z,100.00
2023-02-13T22:55:11.585Z,100.00
2023-02-13T22:59:13.912Z,100.00
2023-02-13T23:03:15.630Z,100.00
2023-02-13T23:07:18.441Z,100.00
2023-02-13T23:11:39.352Z,100.00
2023-02-13T23:15:40.921Z,100.00
2023-02-13T23:19:42.626Z,100.00
2023-02-13T23:23:44.209Z,100.00
2023-02-13T23:27:46.292Z,100.00
2023-02-13T23:31:47.989Z,100.00
2023-02-13T23:35:49.698Z,100.00
2023-02-13T23:39:51.326Z,100.00
2023-02-13T23:43:53.024Z,100.00
2023-02-13T23:47:54.560Z,100.00
2023-02-13T23:51:56.162Z,100.00
2023-02-13T23:55:57.716Z,100.00
2023-02-13T23:59:59.264Z,100.00
